createdAt,value
2022-07-29T00:00:28.517Z,58.61
2022-07-29T00:02:30.441Z,58.99
2022-07-29T00:04:32.260Z,58.93
2022-07-29T00:06:34.045Z,59.20
2022-07-29T00:08:35.775Z,58.91
2022-07-29T00:11:15.294Z,58.71
2022-07-29T00:13:17.006Z,58.88
2022-07-29T00:15:18.737Z,58.79
2022-07-29T00:17:20.416Z,59.13
2022-07-29T00:19:22.090Z,59.28
2022-07-29T00:21:25.062Z,59.28
2022-07-29T00:23:26.986Z,59.11
2022-07-29T00:25:28.691Z,59.08
2022-07-29T00:27:30.374Z,59.11
2022-07-29T00:29:33.933Z,59.25
2022-07-29T00:31:36.474Z,59.22
2022-07-29T00:33:38.218Z,59.12
2022-07-29T00:35:45.682Z,58.57
2022-07-29T00:37:47.353Z,58.39
2022-07-29T00:39:49.578Z,58.44
2022-07-29T00:41:51.239Z,58.76
2022-07-29T00:43:52.894Z,59.32
2022-07-29T00:45:54.592Z,59.32
2022-07-29T00:47:56.346Z,59.49
2022-07-29T00:49:58.570Z,59.46
2022-07-29T00:52:01.718Z,59.46
2022-07-29T00:54:04.537Z,59.16
2022-07-29T00:56:06.229Z,59.63
2022-07-29T00:58:08.174Z,59.78
2022-07-29T01:00:16.584Z,60.06
2022-07-29T01:02:18.883Z,60.32
2022-07-29T01:04:24.538Z,60.42
2022-07-29T01:06:26.223Z,60.11
2022-07-29T01:08:28.655Z,59.94
2022-07-29T01:10:30.517Z,60.11
2022-07-29T01:12:34.522Z,60.18
2022-07-29T01:14:37.351Z,60.09
2022-07-29T01:16:47.608Z,59.98
2022-07-29T01:18:51.324Z,60.38
2022-07-29T01:21:21.038Z,60.05
2022-07-29T01:23:38.619Z,59.96
2022-07-29T01:25:42.861Z,59.65
2022-07-29T01:28:10.451Z,59.60
2022-07-29T01:30:15.708Z,59.81
2022-07-29T01:32:28.355Z,59.89
2022-07-29T01:34:58.110Z,59.92
2022-07-29T01:37:05.393Z,60.28
2022-07-29T01:39:15.584Z,60.34
2022-07-29T01:41:18.739Z,60.07
2022-07-29T01:43:22.664Z,60.13
2022-07-29T01:45:40.177Z,60.19
2022-07-29T01:47:48.686Z,60.06
2022-07-29T01:49:52.937Z,60.06
2022-07-29T01:52:05.024Z,60.11
2022-07-29T01:54:15.678Z,59.98
2022-07-29T01:56:19.760Z,60.08
2022-07-29T01:58:21.779Z,60.47
2022-07-29T02:00:23.802Z,60.58
2022-07-29T02:02:25.788Z,60.53
2022-07-29T02:04:30.190Z,60.67
2022-07-29T02:06:33.686Z,60.48
2022-07-29T02:08:36.815Z,60.88
2022-07-29T02:10:40.386Z,60.96
2022-07-29T02:12:43.954Z,60.96
2022-07-29T02:14:54.521Z,60.94
2022-07-29T02:16:57.129Z,61.26
2022-07-29T02:18:59.190Z,61.37
2022-07-29T02:21:01.863Z,61.18
2022-07-29T02:23:03.957Z,61.15
2022-07-29T02:25:05.779Z,61.26
2022-07-29T02:27:08.550Z,61.27
2022-07-29T02:29:13.161Z,61.10
2022-07-29T02:31:15.263Z,61.09
2022-07-29T02:33:16.998Z,60.77
2022-07-29T02:35:19.609Z,60.64
2022-07-29T02:37:22.570Z,60.41
2022-07-29T02:39:25.593Z,60.19
2022-07-29T02:41:30.934Z,60.29
2022-07-29T02:43:33.953Z,60.68
2022-07-29T02:45:35.651Z,61.09
2022-07-29T02:47:48.728Z,61.27
2022-07-29T02:50:02.418Z,61.32
2022-07-29T02:52:14.384Z,61.47
2022-07-29T02:54:33.257Z,61.44
2022-07-29T02:56:38.711Z,61.49
2022-07-29T02:58:46.352Z,61.58
2022-07-29T03:00:48.981Z,61.57
2022-07-29T03:02:55.080Z,61.67
2022-07-29T03:04:57.278Z,61.65
2022-07-29T03:07:01.526Z,61.59
2022-07-29T03:09:05.033Z,61.50
2022-07-29T03:11:10.077Z,61.81
2022-07-29T03:13:13.465Z,61.86
2022-07-29T03:15:15.234Z,61.95
2022-07-29T03:17:17.572Z,62.20
2022-07-29T03:19:21.177Z,62.19
2022-07-29T03:21:23.099Z,62.02
2022-07-29T03:23:25.120Z,62.35
2022-07-29T03:25:28.267Z,62.54
2022-07-29T03:27:30.020Z,62.49
2022-07-29T03:29:33.462Z,62.57
2022-07-29T03:31:36.216Z,62.35
2022-07-29T03:33:37.873Z,62.58
2022-07-29T03:35:39.624Z,62.85
2022-07-29T03:37:41.265Z,62.67
2022-07-29T03:39:44.089Z,62.88
2022-07-29T03:41:48.539Z,62.56
2022-07-29T03:43:51.012Z,62.47
2022-07-29T03:45:54.492Z,62.75
2022-07-29T03:48:01.258Z,63.10
2022-07-29T03:50:07.262Z,62.90
2022-07-29T03:52:12.481Z,62.65
2022-07-29T03:54:14.467Z,62.95
2022-07-29T03:56:17.829Z,62.77
2022-07-29T03:58:19.875Z,62.94
2022-07-29T04:00:23.061Z,63.53
2022-07-29T04:02:30.588Z,63.56
2022-07-29T04:04:36.268Z,63.39
2022-07-29T04:06:45.097Z,63.04
2022-07-29T04:08:47.809Z,63.23
2022-07-29T04:10:49.527Z,63.23
2022-07-29T04:12:51.839Z,63.37
2022-07-29T04:14:53.747Z,63.82
2022-07-29T04:16:55.422Z,63.72
2022-07-29T04:18:58.279Z,63.46
2022-07-29T04:24:17.545Z,63.63
2022-07-29T04:26:20.675Z,63.76
2022-07-29T04:28:22.334Z,63.76
2022-07-29T04:30:24.152Z,64.13
2022-07-29T04:32:26.694Z,64.04
2022-07-29T04:34:53.686Z,63.76
2022-07-29T04:36:56.196Z,63.74
2022-07-29T04:38:58.004Z,63.72
2022-07-29T04:40:59.677Z,63.93
2022-07-29T04:43:03.194Z,63.81
2022-07-29T04:45:07.800Z,63.63
2022-07-29T04:47:09.736Z,63.41
2022-07-29T04:49:11.453Z,63.48
2022-07-29T04:51:13.630Z,63.48
2022-07-29T04:53:15.171Z,63.65
2022-07-29T04:55:16.891Z,63.81
2022-07-29T04:57:18.563Z,63.89
2022-07-29T04:59:20.247Z,63.67
2022-07-29T05:01:22.197Z,63.53
2022-07-29T05:03:23.868Z,63.74
2022-07-29T05:05:25.516Z,63.79
2022-07-29T05:07:27.419Z,64.01
2022-07-29T05:09:29.107Z,64.26
2022-07-29T05:12:40.915Z,64.07
2022-07-29T05:14:42.570Z,64.12
2022-07-29T05:16:44.506Z,64.23
2022-07-29T05:18:46.210Z,64.18
2022-07-29T05:20:47.878Z,64.14
2022-07-29T05:22:51.159Z,64.09
2022-07-29T05:24:53.050Z,63.83
2022-07-29T05:31:11.380Z,63.58
2022-07-29T05:33:36.023Z,63.49
2022-07-29T05:35:36.021Z,63.38
2022-07-29T05:37:37.708Z,63.23
2022-07-29T05:39:48.299Z,63.18
2022-07-29T05:41:52.132Z,63.01
2022-07-29T05:43:53.903Z,62.97
2022-07-29T05:45:55.903Z,63.02
2022-07-29T05:47:58.138Z,62.86
2022-07-29T05:49:59.733Z,62.84
2022-07-29T05:52:01.390Z,62.62
2022-07-29T05:54:03.161Z,62.33
2022-07-29T05:56:06.117Z,62.34
2022-07-29T05:58:07.946Z,62.16
2022-07-29T06:00:10.437Z,62.21
2022-07-29T06:02:12.492Z,62.04
2022-07-29T06:04:14.514Z,62.12
2022-07-29T06:06:16.479Z,62.12
2022-07-29T06:08:18.437Z,62.15
2022-07-29T06:10:20.196Z,62.15
2022-07-29T06:12:25.648Z,62.11
2022-07-29T06:14:30.402Z,62.06
2022-07-29T06:16:32.116Z,61.90
2022-07-29T06:18:34.063Z,61.79
2022-07-29T06:20:36.306Z,61.89
2022-07-29T06:22:38.082Z,61.96
2022-07-29T06:24:44.890Z,62.05
2022-07-29T06:26:46.598Z,62.11
2022-07-29T06:28:48.506Z,62.13
2022-07-29T06:30:51.959Z,61.98
2022-07-29T06:32:53.822Z,62.07
2022-07-29T06:35:17.750Z,62.12
2022-07-29T06:37:17.574Z,61.89
2022-07-29T06:39:19.340Z,62.11
2022-07-29T06:41:21.066Z,62.10
2022-07-29T06:43:22.907Z,62.06
2022-07-29T06:45:25.308Z,62.04
2022-07-29T06:47:30.150Z,61.79
2022-07-29T06:49:31.858Z,61.79
2022-07-29T06:51:38.946Z,61.58
2022-07-29T06:54:00.422Z,61.25
2022-07-29T06:56:04.676Z,60.94
2022-07-29T06:58:06.382Z,60.78
2022-07-29T07:00:08.919Z,60.85
2022-07-29T07:02:10.671Z,60.54
2022-07-29T07:04:13.174Z,60.12
2022-07-29T07:06:15.353Z,59.92
2022-07-29T07:08:17.207Z,59.79
2022-07-29T07:10:18.964Z,59.61
2022-07-29T07:12:20.854Z,59.37
2022-07-29T07:14:22.527Z,59.28
2022-07-29T07:16:24.263Z,59.41
2022-07-29T07:18:25.930Z,58.96
2022-07-29T07:20:27.734Z,58.65
2022-07-29T07:22:29.404Z,58.96
2022-07-29T07:24:31.068Z,58.75
2022-07-29T07:26:33.884Z,58.52
2022-07-29T07:28:35.552Z,58.31
2022-07-29T07:30:37.416Z,57.98
2022-07-29T07:32:39.118Z,57.72
2022-07-29T07:34:40.874Z,57.40
2022-07-29T07:36:42.584Z,57.08
2022-07-29T07:38:44.240Z,57.22
2022-07-29T07:40:47.421Z,56.98
2022-07-29T07:42:49.069Z,56.51
2022-07-29T07:45:12.092Z,56.47
2022-07-29T07:47:13.358Z,56.11
2022-07-29T07:49:15.119Z,55.76
2022-07-29T07:51:16.794Z,55.58
2022-07-29T07:53:18.633Z,55.16
2022-07-29T07:55:20.978Z,54.82
2022-07-29T07:57:22.679Z,54.97
2022-07-29T07:59:24.542Z,54.30
2022-07-29T08:01:27.355Z,53.97
2022-07-29T08:03:29.266Z,53.32
2022-07-29T08:05:30.837Z,53.23
2022-07-29T08:07:32.534Z,52.92
2022-07-29T08:09:35.355Z,52.50
2022-07-29T08:11:37.752Z,52.15
2022-07-29T08:13:39.771Z,51.85
2022-07-29T08:15:42.497Z,51.45
2022-07-29T08:17:44.181Z,51.19
2022-07-29T08:19:46.560Z,51.06
2022-07-29T08:21:48.775Z,50.92
2022-07-29T08:23:59.699Z,50.63
2022-07-29T08:26:02.438Z,50.98
2022-07-29T08:28:04.289Z,50.37
2022-07-29T08:30:06.606Z,49.75
2022-07-29T08:32:08.373Z,49.36
2022-07-29T08:34:10.443Z,48.86
2022-07-29T08:36:14.230Z,48.11
2022-07-29T08:38:15.942Z,47.90
2022-07-29T08:40:17.753Z,47.85
2022-07-29T08:42:21.126Z,48.26
2022-07-29T08:44:30.448Z,47.38
2022-07-29T08:46:32.755Z,46.02
2022-07-29T08:48:34.685Z,45.53
2022-07-29T08:50:36.684Z,45.88
2022-07-29T08:52:40.400Z,45.51
2022-07-29T08:54:44.926Z,44.65
2022-07-29T08:56:50.639Z,44.73
2022-07-29T08:58:53.502Z,44.45
2022-07-29T09:00:56.440Z,43.71
2022-07-29T09:03:00.345Z,43.73
2022-07-29T09:05:03.609Z,43.01
2022-07-29T09:07:06.818Z,43.30
2022-07-29T09:09:08.871Z,43.64
2022-07-29T09:11:12.487Z,43.46
2022-07-29T09:13:14.199Z,43.69
2022-07-29T09:15:15.960Z,43.51
2022-07-29T09:17:20.935Z,42.86
2022-07-29T09:19:34.491Z,42.22
2022-07-29T09:21:59.869Z,41.37
2022-07-29T09:24:13.504Z,41.49
2022-07-29T09:26:15.268Z,40.45
2022-07-29T09:28:20.168Z,41.13
2022-07-29T09:30:30.433Z,40.85
2022-07-29T09:32:34.698Z,40.47
2022-07-29T09:34:36.541Z,39.58
2022-07-29T09:36:41.381Z,39.29
2022-07-29T09:38:42.924Z,39.17
2022-07-29T09:40:44.442Z,38.93
2022-07-29T09:42:46.305Z,38.63
2022-07-29T09:44:49.512Z,38.67
2022-07-29T09:46:55.275Z,38.55
2022-07-29T09:49:10.432Z,37.08
2022-07-29T09:51:21.443Z,37.25
2022-07-29T09:53:30.520Z,37.04
2022-07-29T09:55:32.089Z,36.87
2022-07-29T09:57:33.661Z,36.86
2022-07-29T09:59:35.274Z,37.11
2022-07-29T10:01:37.091Z,36.40
2022-07-29T10:03:51.854Z,36.07
2022-07-29T10:06:09.955Z,36.16
2022-07-29T10:08:13.262Z,35.73
2022-07-29T10:10:21.875Z,35.22
2022-07-29T10:12:23.894Z,34.52
2022-07-29T10:14:26.196Z,35.17
2022-07-29T10:16:33.648Z,35.32
2022-07-29T10:18:35.490Z,34.69
2022-07-29T10:20:37.222Z,35.75
2022-07-29T10:22:54.427Z,35.68
2022-07-29T10:24:56.091Z,34.79
2022-07-29T10:26:58.474Z,34.47
2022-07-29T10:29:00.718Z,34.37
2022-07-29T10:31:06.754Z,34.15
2022-07-29T10:33:26.385Z,33.35
2022-07-29T10:35:46.427Z,32.69
2022-07-29T10:37:56.910Z,32.50
2022-07-29T10:40:36.058Z,32.36
2022-07-29T10:42:37.639Z,32.25
2022-07-29T10:44:41.937Z,31.67
2022-07-29T10:46:43.927Z,31.52
2022-07-29T10:49:04.769Z,31.31
2022-07-29T10:51:07.149Z,31.34
2022-07-29T10:53:08.941Z,30.80
2022-07-29T10:55:33.237Z,30.34
2022-07-29T10:57:53.251Z,29.98
2022-07-29T11:00:06.579Z,28.76
2022-07-29T11:02:42.033Z,29.55
2022-07-29T11:04:45.115Z,30.20
2022-07-29T11:07:03.824Z,29.98
2022-07-29T11:09:25.884Z,29.16
2022-07-29T11:11:37.941Z,29.39
2022-07-29T11:13:48.941Z,28.71
2022-07-29T11:15:55.016Z,29.12
2022-07-29T11:18:03.146Z,28.76
2022-07-29T11:20:24.343Z,28.49
2022-07-29T11:22:33.104Z,28.19
2022-07-29T11:24:35.848Z,28.75
2022-07-29T11:26:37.537Z,28.64
2022-07-29T11:28:56.823Z,28.56
2022-07-29T11:30:58.387Z,28.03
2022-07-29T11:33:00.465Z,27.06
2022-07-29T11:35:37.215Z,26.74
2022-07-29T11:37:45.842Z,27.46
2022-07-29T11:39:54.417Z,26.72
2022-07-29T11:42:16.527Z,26.55
2022-07-29T11:44:18.212Z,26.93
2022-07-29T11:46:38.841Z,27.07
2022-07-29T11:48:44.283Z,26.87
2022-07-29T11:50:48.847Z,26.67
2022-07-29T11:52:51.200Z,26.47
2022-07-29T11:54:58.389Z,26.73
2022-07-29T11:57:15.363Z,25.85
2022-07-29T11:59:17.727Z,26.64
2022-07-29T12:07:35.137Z,25.30
2022-07-29T12:09:40.109Z,25.86
2022-07-29T12:11:47.430Z,25.73
2022-07-29T12:13:49.864Z,24.92
2022-07-29T12:15:54.997Z,25.08
2022-07-29T12:17:56.996Z,24.95
2022-07-29T12:20:04.132Z,25.22
2022-07-29T12:22:05.964Z,25.19
2022-07-29T12:24:09.497Z,24.88
2022-07-29T12:26:25.342Z,24.83
2022-07-29T12:28:27.745Z,24.49
2022-07-29T12:30:40.636Z,24.44
2022-07-29T12:32:43.247Z,24.53
2022-07-29T12:34:44.819Z,24.19
2022-07-29T12:36:46.420Z,24.09
2022-07-29T12:38:47.988Z,24.68
2022-07-29T12:40:51.750Z,24.57
2022-07-29T12:43:10.201Z,24.32
2022-07-29T12:45:12.022Z,24.50
2022-07-29T12:47:13.546Z,24.54
2022-07-29T12:49:24.216Z,24.08
2022-07-29T12:51:32.999Z,24.04
2022-07-29T12:53:34.670Z,23.89
2022-07-29T12:55:41.849Z,23.53
2022-07-29T12:57:50.575Z,23.49
2022-07-29T13:00:11.910Z,23.72
2022-07-29T13:02:25.641Z,23.66
2022-07-29T13:04:30.878Z,24.02
2022-07-29T13:06:36.705Z,23.44
2022-07-29T13:08:38.392Z,23.42
2022-07-29T13:10:40.064Z,23.78
2022-07-29T13:13:00.268Z,23.44
2022-07-29T13:15:02.115Z,23.25
2022-07-29T13:17:07.780Z,23.13
2022-07-29T13:19:12.372Z,22.99
2022-07-29T13:21:14.676Z,23.35
2022-07-29T13:23:16.709Z,23.34
2022-07-29T13:25:25.071Z,23.31
2022-07-29T13:27:27.591Z,23.89
2022-07-29T13:29:31.625Z,23.80
2022-07-29T13:31:33.394Z,23.54
2022-07-29T13:33:34.922Z,23.67
2022-07-29T13:35:40.147Z,23.27
2022-07-29T13:37:41.912Z,23.16
2022-07-29T13:39:43.989Z,22.85
2022-07-29T13:41:54.940Z,23.29
2022-07-29T13:43:58.149Z,22.85
2022-07-29T13:46:00.038Z,22.75
2022-07-29T13:48:01.676Z,23.23
2022-07-29T13:50:04.187Z,23.03
2022-07-29T13:52:08.470Z,22.90
2022-07-29T13:54:10.155Z,23.03
2022-07-29T13:56:11.691Z,23.33
2022-07-29T13:58:13.632Z,22.65
2022-07-29T14:00:16.225Z,22.75
2022-07-29T14:02:18.051Z,22.57
2022-07-29T14:04:19.758Z,22.63
2022-07-29T14:06:25.655Z,22.66
2022-07-29T14:08:41.676Z,22.55
2022-07-29T14:10:43.434Z,22.97
2022-07-29T14:12:45.200Z,22.85
2022-07-29T14:14:48.143Z,22.74
2022-07-29T14:17:19.097Z,22.36
2022-07-29T14:19:21.113Z,23.32
2022-07-29T14:21:22.832Z,24.77
2022-07-29T14:23:25.681Z,25.09
2022-07-29T14:25:31.689Z,24.88
2022-07-29T14:27:38.296Z,25.26
2022-07-29T14:29:40.141Z,25.50
2022-07-29T14:31:41.860Z,25.61
2022-07-29T14:33:43.859Z,25.29
2022-07-29T14:35:48.110Z,25.00
2022-07-29T14:37:50.152Z,25.19
2022-07-29T14:39:51.818Z,24.43
2022-07-29T14:41:54.772Z,24.29
2022-07-29T14:43:57.827Z,24.36
2022-07-29T14:46:03.957Z,24.56
2022-07-29T14:48:07.278Z,24.40
2022-07-29T14:50:09.298Z,24.19
2022-07-29T14:52:11.065Z,24.21
2022-07-29T14:54:15.799Z,23.82
2022-07-29T14:56:35.986Z,23.67
2022-07-29T14:58:38.572Z,23.76
2022-07-29T15:00:53.518Z,23.88
2022-07-29T15:03:03.081Z,23.91
2022-07-29T15:05:05.353Z,23.90
2022-07-29T15:07:07.291Z,23.93
2022-07-29T15:09:09.102Z,23.57
2022-07-29T15:11:10.960Z,23.65
2022-07-29T15:13:12.548Z,23.72
2022-07-29T15:15:14.123Z,23.16
2022-07-29T15:17:15.768Z,23.45
2022-07-29T15:19:17.568Z,23.44
2022-07-29T15:21:19.120Z,23.31
2022-07-29T15:23:20.706Z,23.55
2022-07-29T15:25:22.803Z,23.50
2022-07-29T15:27:24.353Z,23.34
2022-07-29T15:29:25.936Z,23.51
2022-07-29T15:31:27.495Z,23.63
2022-07-29T15:33:29.152Z,23.33
2022-07-29T15:35:31.314Z,22.92
2022-07-29T15:37:48.767Z,22.94
2022-07-29T15:39:51.331Z,22.94
2022-07-29T15:42:50.793Z,23.08
2022-07-29T15:44:52.360Z,23.16
2022-07-29T15:47:09.097Z,23.17
2022-07-29T15:49:11.833Z,23.38
2022-07-29T15:51:13.496Z,23.21
2022-07-29T15:53:15.217Z,23.18
2022-07-29T15:55:16.816Z,23.16
2022-07-29T15:57:18.385Z,22.96
2022-07-29T15:59:22.045Z,23.03
2022-07-29T16:01:25.025Z,23.32
2022-07-29T16:03:26.729Z,23.34
2022-07-29T16:05:29.654Z,23.69
2022-07-29T16:07:31.720Z,24.09
2022-07-29T16:09:34.473Z,24.29
2022-07-29T16:11:36.244Z,24.52
2022-07-29T16:13:37.782Z,24.32
2022-07-29T16:15:39.767Z,24.42
2022-07-29T16:17:41.300Z,24.09
2022-07-29T16:19:43.465Z,23.58
2022-07-29T16:21:45.126Z,23.80
2022-07-29T16:23:46.713Z,23.89
2022-07-29T16:25:59.619Z,23.43
2022-07-29T16:28:02.078Z,23.36
2022-07-29T16:30:04.177Z,22.99
2022-07-29T16:32:06.173Z,23.24
2022-07-29T16:34:07.857Z,23.26
2022-07-29T16:36:09.391Z,23.21
2022-07-29T16:38:14.683Z,23.63
2022-07-29T16:40:16.230Z,23.72
2022-07-29T16:42:36.913Z,23.81
2022-07-29T16:44:40.704Z,23.45
2022-07-29T16:46:44.087Z,23.89
2022-07-29T16:48:46.012Z,24.62
2022-07-29T16:50:47.644Z,24.89
2022-07-29T16:52:49.214Z,25.64
2022-07-29T16:54:50.755Z,25.69
2022-07-29T16:56:52.340Z,26.16
2022-07-29T16:58:53.924Z,26.78
2022-07-29T17:00:55.905Z,26.83
2022-07-29T17:02:57.506Z,27.26
2022-07-29T17:04:59.140Z,27.59
2022-07-29T17:07:01.289Z,28.02
2022-07-29T17:09:06.601Z,28.06
2022-07-29T17:11:08.151Z,27.12
2022-07-29T17:13:09.728Z,27.01
2022-07-29T17:15:12.453Z,26.44
2022-07-29T17:17:16.731Z,26.12
2022-07-29T17:19:22.529Z,25.40
2022-07-29T17:21:24.259Z,25.35
2022-07-29T17:23:26.587Z,25.10
2022-07-29T17:28:25.103Z,25.01
2022-07-29T17:30:26.862Z,25.08
2022-07-29T17:32:28.450Z,24.95
2022-07-29T17:34:30.063Z,25.39
2022-07-29T17:36:53.704Z,25.36
2022-07-29T17:38:59.384Z,25.25
2022-07-29T17:41:00.910Z,25.36
2022-07-29T17:43:02.533Z,25.46
2022-07-29T17:45:04.237Z,25.71
2022-07-29T17:47:15.551Z,25.86
2022-07-29T17:49:18.200Z,26.06
2022-07-29T17:51:19.787Z,26.05
2022-07-29T17:53:21.323Z,26.68
2022-07-29T17:55:22.886Z,27.30
2022-07-29T17:57:24.690Z,27.98
2022-07-29T17:59:26.223Z,28.36
2022-07-29T18:01:28.138Z,28.85
2022-07-29T18:03:30.158Z,29.47
2022-07-29T18:05:31.758Z,29.61
2022-07-29T18:07:33.354Z,30.22
2022-07-29T18:09:34.910Z,30.78
2022-07-29T18:11:36.446Z,31.33
2022-07-29T18:13:40.599Z,31.91
2022-07-29T18:15:42.618Z,32.41
2022-07-29T18:17:56.575Z,32.74
2022-07-29T18:19:59.167Z,33.61
2022-07-29T18:22:05.416Z,33.79
2022-07-29T18:24:07.746Z,34.37
2022-07-29T18:26:09.919Z,34.68
2022-07-29T18:28:11.464Z,34.69
2022-07-29T18:30:15.032Z,34.78
2022-07-29T18:32:16.690Z,34.75
2022-07-29T18:34:19.275Z,35.21
2022-07-29T18:36:20.881Z,35.26
2022-07-29T18:38:22.881Z,35.57
2022-07-29T18:40:25.775Z,35.71
2022-07-29T18:42:27.373Z,36.10
2022-07-29T18:44:28.946Z,36.09
2022-07-29T18:46:31.246Z,36.47
2022-07-29T18:48:34.708Z,36.84
2022-07-29T18:50:36.452Z,36.77
2022-07-29T18:52:38.030Z,37.09
2022-07-29T18:54:39.578Z,37.42
2022-07-29T18:56:41.273Z,37.85
2022-07-29T18:58:42.792Z,37.94
2022-07-29T19:00:44.334Z,38.18
2022-07-29T19:02:46.053Z,38.32
2022-07-29T19:04:49.741Z,38.83
2022-07-29T19:06:51.374Z,39.07
2022-07-29T19:08:53.319Z,39.06
2022-07-29T19:10:54.842Z,39.67
2022-07-29T19:12:59.241Z,39.74
2022-07-29T19:15:20.765Z,40.03
2022-07-29T19:17:22.556Z,40.14
2022-07-29T19:19:24.175Z,40.49
2022-07-29T19:21:25.854Z,40.79
2022-07-29T19:23:27.660Z,41.02
2022-07-29T19:25:29.347Z,41.50
2022-07-29T19:27:31.778Z,41.72
2022-07-29T19:29:35.409Z,41.77
2022-07-29T19:31:37.203Z,42.10
2022-07-29T19:33:39.287Z,42.36
2022-07-29T19:35:41.014Z,42.61
2022-07-29T19:37:42.572Z,42.96
2022-07-29T19:39:44.253Z,43.13
2022-07-29T19:41:46.370Z,43.48
2022-07-29T19:43:51.467Z,43.64
2022-07-29T19:45:54.469Z,43.70
2022-07-29T19:48:01.132Z,43.74
2022-07-29T19:50:03.830Z,43.87
2022-07-29T19:52:05.997Z,44.06
2022-07-29T19:54:09.477Z,44.25
2022-07-29T19:56:11.339Z,44.62
2022-07-29T19:58:13.027Z,44.71
2022-07-29T20:00:16.253Z,44.98
2022-07-29T20:02:18.544Z,45.02
2022-07-29T20:04:20.408Z,45.07
2022-07-29T20:06:23.187Z,45.14
2022-07-29T20:08:24.891Z,45.36
2022-07-29T20:10:26.762Z,45.60
2022-07-29T20:12:29.006Z,45.87
2022-07-29T20:14:31.027Z,46.02
2022-07-29T20:16:32.825Z,46.21
2022-07-29T20:18:35.130Z,46.51
2022-07-29T20:20:36.908Z,46.91
2022-07-29T20:22:38.726Z,46.88
2022-07-29T20:24:40.562Z,46.89
2022-07-29T20:26:43.611Z,46.89
2022-07-29T20:28:49.551Z,47.22
2022-07-29T20:30:53.399Z,47.36
2022-07-29T20:32:55.129Z,47.71
2022-07-29T20:34:56.869Z,47.74
2022-07-29T20:36:58.768Z,47.96
2022-07-29T20:39:01.717Z,47.99
2022-07-29T20:41:03.798Z,48.24
2022-07-29T20:43:05.881Z,48.11
2022-07-29T20:45:08.786Z,48.28
2022-07-29T20:47:10.619Z,48.37
2022-07-29T20:49:12.455Z,48.59
2022-07-29T20:51:14.502Z,48.44
2022-07-29T20:53:20.461Z,48.81
2022-07-29T20:55:22.178Z,48.86
2022-07-29T20:57:38.662Z,48.86
2022-07-29T20:59:45.764Z,48.98
2022-07-29T21:01:47.749Z,49.10
2022-07-29T21:03:49.501Z,49.27
2022-07-29T21:05:51.545Z,49.71
2022-07-29T21:07:57.854Z,50.05
2022-07-29T21:10:00.067Z,50.15
2022-07-29T21:12:02.346Z,50.23
2022-07-29T21:14:04.286Z,50.36
2022-07-29T21:16:14.833Z,50.49
2022-07-29T21:18:36.914Z,50.67
2022-07-29T21:20:38.630Z,50.65
2022-07-29T21:22:40.618Z,50.67
2022-07-29T21:24:42.273Z,50.95
2022-07-29T21:26:50.624Z,51.24
2022-07-29T21:28:56.282Z,51.24
2022-07-29T21:31:01.195Z,50.58
2022-07-29T21:33:03.907Z,50.51
2022-07-29T21:35:18.197Z,50.84
2022-07-29T21:37:28.126Z,51.40
2022-07-29T21:39:29.805Z,51.64
2022-07-29T21:41:31.517Z,51.92
2022-07-29T21:43:33.274Z,52.12
2022-07-29T21:45:35.024Z,51.96
2022-07-29T21:47:36.665Z,52.00
2022-07-29T21:49:38.461Z,52.25
2022-07-29T21:51:40.113Z,52.54
2022-07-29T22:00:28.752Z,52.67
2022-07-29T22:02:30.420Z,52.89
2022-07-29T22:04:32.391Z,52.92
2022-07-29T22:06:34.652Z,52.87
2022-07-29T22:08:36.317Z,53.12
2022-07-29T22:10:38.060Z,53.56
2022-07-29T22:13:11.766Z,52.85
2022-07-29T22:15:13.670Z,52.87
2022-07-29T22:17:16.095Z,53.08
2022-07-29T22:19:17.805Z,53.08
2022-07-29T22:21:21.243Z,53.31
2022-07-29T22:23:22.891Z,53.78
2022-07-29T22:25:24.590Z,53.97
2022-07-29T22:27:26.279Z,54.11
2022-07-29T22:29:28.367Z,54.13
2022-07-29T22:31:30.124Z,54.24
2022-07-29T22:33:31.901Z,54.43
2022-07-29T22:35:33.654Z,54.54
2022-07-29T22:37:35.433Z,54.33
2022-07-29T22:39:37.155Z,54.51
2022-07-29T22:41:39.004Z,54.81
2022-07-29T22:43:40.827Z,55.53
2022-07-29T22:45:42.543Z,55.50
2022-07-29T22:47:48.179Z,55.31
2022-07-29T22:49:50.254Z,55.31
2022-07-29T22:51:51.954Z,55.20
2022-07-29T22:53:53.883Z,55.26
2022-07-29T22:55:55.698Z,54.85
2022-07-29T22:57:57.327Z,55.08
2022-07-29T23:00:01.678Z,55.41
2022-07-29T23:02:03.582Z,55.62
2022-07-29T23:04:06.337Z,56.06
2022-07-29T23:06:08.049Z,55.86
2022-07-29T23:08:09.722Z,55.48
2022-07-29T23:10:11.917Z,55.47
2022-07-29T23:12:13.624Z,55.87
2022-07-29T23:14:15.297Z,55.83
2022-07-29T23:16:26.425Z,55.76
2022-07-29T23:18:28.682Z,55.94
2022-07-29T23:20:30.382Z,56.12
2022-07-29T23:22:35.075Z,55.93
2022-07-29T23:24:36.739Z,55.67
2022-07-29T23:26:38.470Z,56.04
2022-07-29T23:28:40.128Z,56.74
2022-07-29T23:30:42.899Z,57.33
2022-07-29T23:32:44.618Z,57.29
2022-07-29T23:34:46.262Z,57.11
2022-07-29T23:36:47.949Z,56.71
2022-07-29T23:38:49.689Z,56.88
2022-07-29T23:40:51.375Z,56.94
2022-07-29T23:42:53.051Z,56.98
2022-07-29T23:44:54.730Z,57.17
2022-07-29T23:46:56.438Z,57.36
2022-07-29T23:48:58.251Z,57.48
2022-07-29T23:51:01.231Z,57.57
2022-07-29T23:53:02.907Z,57.55
2022-07-29T23:55:36.579Z,57.62
2022-07-29T23:57:27.397Z,57.79
2022-07-29T23:59:28.942Z,57.75
